M I D A S
Marine Information and Data Acquisition System
Tripno 435 of the Zeeleeuw from 2003-02-24 07:24:40 to 2003-02-24 15:38:59
Back to CruiseResearch ActivitiesStationsMapUnderway DataData graphs

EquipmentUnitsComments
TimeDGPSUTC
LatitudeDGPSDM.mWGS84
LongitudeDGPSDM.mWGS84
SpeedMeteo Stationm/sRelative wind speed
DirectionMeteo StationdegRelative wind direction
TemperatureMeteo Stationdeg CelciusAir temperature
PressureMeteo StationPaAtmospheric pressure
HumidityMeteo Station%Relative humidity
Missing or incorrect values are displayed as -999
Metereological data collected by the RV Zeeleeuw from 2003-02-24 07:24:40 to 2003-02-24 15:38:59
                                                                                    Next 1000 lines
Time Latitude Longitude Speed Direction Temperature Pressure Humidity
2003-02-24 07:24:48 51°13.594 2°56.105 2.7 219 5.5 102600 78
2003-02-24 07:24:53 51°13.594 2°56.105 2.8 221 5.5 102600 78
2003-02-24 07:24:58 51°13.594 2°56.105 3.1 221 5.5 102600 78
2003-02-24 07:25:03 51°13.594 2°56.105 3.1 225 5.5 102600 78
2003-02-24 07:25:08 51°13.594 2°56.105 2.9 220 5.5 102600 78
2003-02-24 07:25:13 51°13.594 2°56.105 3.2 223 5.5 102600 78
2003-02-24 07:25:18 51°13.593 2°56.105 3 211 5.5 102600 78
2003-02-24 07:25:23 51°13.593 2°56.105 2.7 219 5.5 102600 78
2003-02-24 07:25:28 51°13.593 2°56.105 2.7 213 5.5 102600 78
2003-02-24 07:25:33 51°13.593 2°56.105 2.9 222 5.5 102600 78
2003-02-24 07:25:38 51°13.593 2°56.105 3.1 200 5.5 102600 78
2003-02-24 07:25:43 51°13.593 2°56.105 3.2 203 5.5 102600 78
2003-02-24 07:25:47 51°13.593 2°56.104 2.3 196 5.5 102600 78
2003-02-24 07:25:52 51°13.593 2°56.103 2.5 194 5.5 102600 78
2003-02-24 07:25:56 51°13.594 2°56.102 2.2 201 5.5 102600 78
2003-02-24 07:26:03 51°13.595 2°56.099 2.4 194 5.5 102600 78
2003-02-24 07:26:08 51°13.596 2°56.095 2.1 190 5.5 102600 78
2003-02-24 07:26:13 51°13.597 2°56.091 2.1 192 5.5 102600 78
2003-02-24 07:26:18 51°13.598 2°56.086 2 187 5.5 102600 78
2003-02-24 07:26:23 51°13.599 2°56.08 2.4 160 5.5 102600 78
2003-02-24 07:26:28 51°13.6 2°56.073 1.9 141 5.5 102600 78
2003-02-24 07:26:33 51°13.602 2°56.066 1.7 163 5.5 102600 78
2003-02-24 07:26:38 51°13.604 2°56.059 1.3 165 5.5 102600 78
2003-02-24 07:26:43 51°13.607 2°56.051 1.5 139 5.5 102600 78
2003-02-24 07:26:48 51°13.609 2°56.042 1.3 130 5.5 102600 78
2003-02-24 07:26:53 51°13.612 2°56.033 1.3 129 5.5 102600 78
2003-02-24 07:26:58 51°13.614 2°56.024 1.4 127 5.5 102600 78
2003-02-24 07:27:03 51°13.617 2°56.015 1.5 135 5.5 102600 78
2003-02-24 07:27:08 51°13.62 2°56.005 1.6 135 5.5 102600 78
2003-02-24 07:27:13 51°13.623 2°55.995 1.6 128 5.5 102600 78
2003-02-24 07:27:18 51°13.626 2°55.985 1.6 145 5.5 102600 78
2003-02-24 07:27:23 51°13.63 2°55.975 1.2 149 5.5 102600 78
2003-02-24 07:27:28 51°13.633 2°55.965 0.9 95 5.5 102600 78
2003-02-24 07:27:33 51°13.637 2°55.955 1.2 77 5.5 102600 78
2003-02-24 07:27:38 51°13.64 2°55.945 1.6 119 5.5 102600 78
2003-02-24 07:27:43 51°13.644 2°55.935 1.9 139 5.5 102600 78
2003-02-24 07:27:48 51°13.647 2°55.925 1.3 129 5.5 102600 78
2003-02-24 07:27:53 51°13.65 2°55.915 1.3 119 5.5 102600 78
2003-02-24 07:27:58 51°13.653 2°55.905 1.2 132 5.5 102600 78
2003-02-24 07:28:03 51°13.657 2°55.895 1.5 110 5.5 102600 78
2003-02-24 07:28:08 51°13.66 2°55.886 1.2 135 5.5 102600 78
2003-02-24 07:28:13 51°13.663 2°55.876 1 118 5.5 102600 78
2003-02-24 07:28:18 51°13.666 2°55.867 0.6 104 5.5 102600 78
2003-02-24 07:28:23 51°13.668 2°55.858 1 121 5.5 102600 78
2003-02-24 07:28:28 51°13.671 2°55.848 1.3 130 5.5 102600 78
2003-02-24 07:28:33 51°13.673 2°55.839 1.5 132 5.5 102600 78
2003-02-24 07:28:38 51°13.675 2°55.83 0.9 109 5.5 102600 78
2003-02-24 07:28:43 51°13.677 2°55.822 0.7 105 5.5 102600 78
2003-02-24 07:28:48 51°13.68 2°55.813 0.7 105 5.5 102600 78
2003-02-24 07:28:53 51°13.682 2°55.804 1.5 82 5.5 102600 78
2003-02-24 07:28:58 51°13.683 2°55.795 1.1 70 5.5 102600 78
2003-02-24 07:29:03 51°13.685 2°55.787 1.1 90 5.5 102600 78
2003-02-24 07:29:08 51°13.686 2°55.779 1.6 99 5.5 102600 78
2003-02-24 07:29:13 51°13.687 2°55.772 1.3 88 5.5 102600 78
2003-02-24 07:29:18 51°13.689 2°55.765 0.7 85 5.5 102600 78
2003-02-24 07:29:23 51°13.689 2°55.758 0.7 123 5.5 102600 78
2003-02-24 07:29:28 51°13.69 2°55.752 1.4 103 5.5 102600 78
2003-02-24 07:29:33 51°13.691 2°55.747 0.9 105 5.5 102600 78
2003-02-24 07:29:38 51°13.691 2°55.742 1.1 141 5.5 102600 78
2003-02-24 07:29:43 51°13.692 2°55.739 1.4 149 5.5 102600 78
2003-02-24 07:29:48 51°13.692 2°55.736 1.2 156 5.5 102600 78
2003-02-24 07:29:53 51°13.692 2°55.734 1.5 138 5.5 102600 78
2003-02-24 07:29:58 51°13.692 2°55.733 1.4 118 5.5 102600 78
2003-02-24 07:30:03 51°13.693 2°55.732 1.4 115 5.5 102600 78
2003-02-24 07:30:08 51°13.693 2°55.732 1.5 146 5.5 102600 78
2003-02-24 07:30:12 51°13.694 2°55.732 2.4 146 5.5 102600 78
2003-02-24 07:30:18 51°13.695 2°55.733 1.7 128 5.5 102600 78
2003-02-24 07:30:23 51°13.695 2°55.734 1.4 133 5.5 102600 78
2003-02-24 07:30:28 51°13.697 2°55.736 1.5 129 5.5 102600 78
2003-02-24 07:30:33 51°13.698 2°55.737 2.3 134 5.5 102600 78
2003-02-24 07:30:38 51°13.7 2°55.739 2.3 121 5.5 102600 78
2003-02-24 07:30:43 51°13.702 2°55.74 2.5 127 5.5 102600 78
2003-02-24 07:30:47 51°13.703 2°55.741 2 131 5.5 102600 78
2003-02-24 07:30:52 51°13.706 2°55.742 1.8 115 5.4 102600 78
2003-02-24 07:30:57 51°13.708 2°55.743 2 124 5.4 102600 78
2003-02-24 07:31:03 51°13.711 2°55.744 2.6 118 5.4 102600 78
2003-02-24 07:31:08 51°13.714 2°55.745 1.9 87 5.4 102600 78
2003-02-24 07:31:13 51°13.718 2°55.746 1.9 92 5.4 102600 78
2003-02-24 07:31:18 51°13.721 2°55.745 2.4 74 5.4 102600 78
2003-02-24 07:31:23 51°13.724 2°55.745 2.3 58 5.4 102600 78
2003-02-24 07:31:28 51°13.728 2°55.744 1.6 69 5.4 102600 78
2003-02-24 07:31:33 51°13.731 2°55.742 1.5 58 5.4 102600 78
2003-02-24 07:31:38 51°13.735 2°55.74 0.8 51 5.4 102600 78
2003-02-24 07:31:43 51°13.74 2°55.737 0.6 94 5.4 102600 78
2003-02-24 07:31:48 51°13.744 2°55.732 0.2 94 5.4 102600 78
2003-02-24 07:31:53 51°13.749 2°55.728 0.1 15 5.4 102600 78
2003-02-24 07:31:57 51°13.753 2°55.724 0.1 14 5.4 102600 78
2003-02-24 07:32:03 51°13.759 2°55.716 0.3 354 5.4 102600 78
2003-02-24 07:32:06 51°13.762 2°55.713 1.3 291 5.4 102600 78
2003-02-24 07:32:12 51°13.769 2°55.705 1.1 291 5.4 102600 78
2003-02-24 07:32:17 51°13.775 2°55.698 0.8 271 5.4 102600 78
2003-02-24 07:32:23 51°13.782 2°55.689 0.6 271 5.4 102600 78
2003-02-24 07:32:28 51°13.788 2°55.682 1.3 265 5.4 102600 78
2003-02-24 07:32:33 51°13.795 2°55.674 1.3 264 5.4 102600 78
2003-02-24 07:32:37 51°13.8 2°55.668 1.3 265 5.4 102600 78
2003-02-24 07:32:43 51°13.809 2°55.659 1.4 268 5.4 102610 78
2003-02-24 07:32:48 51°13.816 2°55.651 1.1 276 5.4 102610 78
2003-02-24 07:32:53 51°13.824 2°55.643 1.1 265 5.4 102610 78
2003-02-24 07:32:58 51°13.831 2°55.635 1.2 264 5.4 102610 78
2003-02-24 07:33:03 51°13.839 2°55.628 1.3 276 5.5 102600 78
2003-02-24 07:33:08 51°13.847 2°55.62 1.3 268 5.5 102600 78
2003-02-24 07:33:13 51°13.855 2°55.612 0.9 280 5.5 102600 78
2003-02-24 07:33:18 51°13.864 2°55.605 1.1 271 5.5 102600 78
2003-02-24 07:33:23 51°13.873 2°55.598 1 268 5.5 102600 78
2003-02-24 07:33:27 51°13.88 2°55.592 1 276 5.5 102600 78
2003-02-24 07:33:32 51°13.889 2°55.585 1 258 5.5 102600 78
2003-02-24 07:33:38 51°13.901 2°55.577 1 260 5.5 102600 78
2003-02-24 07:33:43 51°13.91 2°55.57 1.4 258 5.5 102610 78
2003-02-24 07:33:48 51°13.92 2°55.563 0.7 258 5.5 102610 78
2003-02-24 07:33:53 51°13.93 2°55.557 0.9 253 5.5 102610 78
2003-02-24 07:33:58 51°13.94 2°55.55 0.9 253 5.5 102610 78
2003-02-24 07:34:03 51°13.949 2°55.543 0.7 253 5.5 102610 78
2003-02-24 07:34:08 51°13.959 2°55.536 0.6 253 5.5 102610 78
2003-02-24 07:34:12 51°13.967 2°55.531 0.7 249 5.5 102610 78
2003-02-24 07:34:16 51°13.975 2°55.526 0.9 242 5.5 102610 78
2003-02-24 07:34:23 51°13.989 2°55.516 0.9 242 5.5 102610 78
2003-02-24 07:34:28 51°14 2°55.509 0.7 242 5.5 102610 78
2003-02-24 07:34:33 51°14.01 2°55.502 0.8 243 5.5 102610 78
2003-02-24 07:34:38 51°14.02 2°55.495 0.9 231 5.5 102610 78
2003-02-24 07:34:43 51°14.03 2°55.488 0.7 232 5.5 102610 78
2003-02-24 07:34:47 51°14.038 2°55.482 0.8 231 5.5 102610 78
2003-02-24 07:34:52 51°14.048 2°55.475 0.8 232 5.5 102610 78
2003-02-24 07:34:57 51°14.058 2°55.467 0.9 232 5.5 102610 78
2003-02-24 07:35:03 51°14.07 2°55.459 0.7 231 5.5 102610 78
2003-02-24 07:35:08 51°14.081 2°55.451 0.8 239 5.5 102610 78
2003-02-24 07:35:13 51°14.091 2°55.444 0.7 239 5.5 102600 78
2003-02-24 07:35:17 51°14.099 2°55.438 0.7 239 5.5 102600 78
2003-02-24 07:35:23 51°14.111 2°55.428 0.5 239 5.5 102600 78
2003-02-24 07:35:28 51°14.121 2°55.42 0.5 239 5.5 102600 78
2003-02-24 07:35:33 51°14.131 2°55.412 0.6 254 5.5 102610 78
2003-02-24 07:35:37 51°14.139 2°55.406 0.7 254 5.5 102610 78
2003-02-24 07:35:43 51°14.152 2°55.395 0.8 253 5.5 102610 78
2003-02-24 07:35:48 51°14.162 2°55.387 0.7 245 5.5 102610 78
2003-02-24 07:35:53 51°14.172 2°55.378 0.7 245 5.5 102610 78
2003-02-24 07:35:58 51°14.182 2°55.368 0.8 243 5.5 102610 78
2003-02-24 07:36:03 51°14.191 2°55.358 0.8 243 5.5 102600 78
2003-02-24 07:36:08 51°14.201 2°55.348 0.9 243 5.5 102600 78
2003-02-24 07:36:12 51°14.208 2°55.339 1.1 243 5.5 102600 78
2003-02-24 07:36:17 51°14.218 2°55.328 1.1 248 5.5 102600 78
2003-02-24 07:36:23 51°14.228 2°55.313 1 251 5.6 102610 78
2003-02-24 07:36:28 51°14.237 2°55.301 1.2 254 5.6 102610 78
2003-02-24 07:36:33 51°14.246 2°55.288 1.2 264 5.5 102600 78
2003-02-24 07:36:38 51°14.254 2°55.275 1.2 264 5.5 102600 78
2003-02-24 07:36:43 51°14.263 2°55.262 1.2 268 5.6 102610 78
2003-02-24 07:36:48 51°14.271 2°55.249 1.3 281 5.6 102610 78
2003-02-24 07:36:53 51°14.279 2°55.235 1.2 287 5.6 102600 78
2003-02-24 07:36:58 51°14.287 2°55.221 0.8 296 5.6 102600 78
2003-02-24 07:37:03 51°14.295 2°55.207 1.3 296 5.6 102600 78
2003-02-24 07:37:08 51°14.302 2°55.192 1.5 274 5.6 102600 78
2003-02-24 07:37:13 51°14.31 2°55.178 1.7 283 5.6 102600 78
2003-02-24 07:37:18 51°14.317 2°55.163 2.1 300 5.6 102600 78
2003-02-24 07:37:23 51°14.325 2°55.149 1.9 292 5.6 102610 78
2003-02-24 07:37:28 51°14.332 2°55.134 1.3 288 5.6 102610 78
2003-02-24 07:37:33 51°14.34 2°55.119 1.3 289 5.6 102600 78
2003-02-24 07:37:38 51°14.348 2°55.105 1.7 277 5.6 102600 78
2003-02-24 07:37:43 51°14.355 2°55.09 2.1 290 5.6 102600 78
2003-02-24 07:37:48 51°14.362 2°55.075 1.4 312 5.6 102600 78
2003-02-24 07:37:53 51°14.369 2°55.059 2 299 5.6 102600 78
2003-02-24 07:37:58 51°14.376 2°55.043 2.3 299 5.6 102600 78
2003-02-24 07:38:03 51°14.382 2°55.026 1.8 298 5.6 102600 78
2003-02-24 07:38:08 51°14.388 2°55.008 1.6 306 5.6 102600 78
2003-02-24 07:38:12 51°14.392 2°54.993 2.6 286 5.7 102600 78
2003-02-24 07:38:18 51°14.399 2°54.97 2.8 283 5.7 102600 78
2003-02-24 07:38:23 51°14.404 2°54.949 2.7 290 5.7 102600 78
2003-02-24 07:38:28 51°14.409 2°54.927 3.8 291 5.7 102600 78
2003-02-24 07:38:32 51°14.412 2°54.91 4.7 290 5.7 102600 78
2003-02-24 07:38:38 51°14.416 2°54.881 4.5 294 5.7 102600 78
2003-02-24 07:38:43 51°14.418 2°54.857 5.1 291 5.7 102600 78
2003-02-24 07:38:48 51°14.419 2°54.831 5.8 295 5.7 102600 78
2003-02-24 07:38:53 51°14.419 2°54.806 5.9 298 5.7 102600 78
2003-02-24 07:38:58 51°14.418 2°54.78 5.7 290 5.7 102600 78
2003-02-24 07:39:03 51°14.416 2°54.754 5.9 291 5.7 102600 78
2003-02-24 07:39:08 51°14.414 2°54.727 6.2 288 5.7 102600 78
2003-02-24 07:39:13 51°14.411 2°54.7 6.9 282 5.7 102590 78
2003-02-24 07:39:18 51°14.407 2°54.673 6.4 283 5.7 102590 78
2003-02-24 07:39:23 51°14.403 2°54.646 5.9 282 5.8 102600 78
2003-02-24 07:39:28 51°14.399 2°54.619 7.1 270 5.8 102600 78
2003-02-24 07:39:33 51°14.394 2°54.593 7.9 278 5.8 102590 78
2003-02-24 07:39:38 51°14.389 2°54.566 7.6 279 5.8 102590 78
2003-02-24 07:39:43 51°14.384 2°54.539 9 271 5.8 102590 78
2003-02-24 07:39:48 51°14.378 2°54.513 8 278 5.8 102590 78
2003-02-24 07:39:53 51°14.372 2°54.487 8.2 268 5.8 102590 78
2003-02-24 07:39:58 51°14.367 2°54.461 9 285 5.8 102590 78
2003-02-24 07:40:03 51°14.36 2°54.435 9.5 284 5.9 102590 78
2003-02-24 07:40:08 51°14.354 2°54.409 9.4 265 5.9 102590 78
2003-02-24 07:40:13 51°14.347 2°54.383 9.5 318 5.9 102580 78
2003-02-24 07:40:18 51°14.341 2°54.358 9.6 278 5.9 102580 78
2003-02-24 07:40:23 51°14.334 2°54.332 8.9 277 6 102580 78
2003-02-24 07:40:28 51°14.327 2°54.307 8.7 270 6 102580 78
2003-02-24 07:40:33 51°14.321 2°54.282 9.2 275 6 102560 77
2003-02-24 07:40:38 51°14.314 2°54.257 8.9 279 6 102560 77
2003-02-24 07:40:43 51°14.307 2°54.231 8.2 278 6.1 102580 77
2003-02-24 07:40:47 51°14.302 2°54.211 8.7 272 6.1 102580 77
2003-02-24 07:40:52 51°14.296 2°54.185 9.5 280 6.1 102580 77
2003-02-24 07:40:58 51°14.289 2°54.155 8.7 279 6.1 102580 77
2003-02-24 07:41:03 51°14.283 2°54.129 8.9 274 6.1 102580 77
2003-02-24 07:41:07 51°14.278 2°54.108 8.4 278 6.1 102580 77
2003-02-24 07:41:12 51°14.273 2°54.082 8.8 276 6.1 102580 76
2003-02-24 07:41:18 51°14.267 2°54.051 8.6 271 6.1 102580 76
2003-02-24 07:41:23 51°14.262 2°54.025 8.5 270 6.1 102590 76
2003-02-24 07:41:28 51°14.256 2°53.999 9.1 278 6.1 102590 76
2003-02-24 07:41:33 51°14.25 2°53.973 8.8 272 6.1 102590 76
2003-02-24 07:41:38 51°14.243 2°53.949 9.1 270 6.1 102590 76
2003-02-24 07:41:43 51°14.236 2°53.924 9.2 274 6.2 102580 76
2003-02-24 07:41:48 51°14.229 2°53.899 8.6 271 6.2 102580 76
2003-02-24 07:41:53 51°14.222 2°53.874 8.7 268 6.2 102590 76
2003-02-24 07:41:57 51°14.217 2°53.853 9.4 274 6.2 102590 76
2003-02-24 07:42:03 51°14.209 2°53.823 8.8 271 6.2 102580 75
2003-02-24 07:42:08 51°14.202 2°53.798 9.1 271 6.2 102580 75
2003-02-24 07:42:13 51°14.195 2°53.772 9.1 273 6.2 102580 75
2003-02-24 07:42:17 51°14.189 2°53.751 9.1 273 6.2 102580 75
2003-02-24 07:42:23 51°14.18 2°53.72 9.4 270 6.2 102580 75
2003-02-24 07:42:28 51°14.172 2°53.694 9 273 6.2 102580 75
2003-02-24 07:42:33 51°14.164 2°53.668 9.7 273 6.2 102580 75
2003-02-24 07:42:38 51°14.156 2°53.642 8.9 273 6.2 102580 75
2003-02-24 07:42:43 51°14.147 2°53.617 9.1 270 6.1 102580 75
2003-02-24 07:42:48 51°14.139 2°53.591 9.8 268 6.1 102580 75
2003-02-24 07:42:52 51°14.131 2°53.571 9.4 271 6.1 102580 75
2003-02-24 07:42:58 51°14.12 2°53.54 9.7 270 6.1 102580 75
2003-02-24 07:43:03 51°14.111 2°53.515 10.2 271 6.1 102580 75
2003-02-24 07:43:08 51°14.102 2°53.489 10 272 6.1 102580 75
2003-02-24 07:43:12 51°14.094 2°53.469 10 269 6.1 102580 75
2003-02-24 07:43:17 51°14.085 2°53.443 9.7 272 6.1 102580 75
2003-02-24 07:43:23 51°14.074 2°53.412 9.1 270 6.1 102580 75
2003-02-24 07:43:28 51°14.065 2°53.386 10.1 273 6.1 102580 75
2003-02-24 07:43:33 51°14.055 2°53.36 10.4 276 6.1 102580 75
2003-02-24 07:43:38 51°14.046 2°53.334 10.5 272 6.1 102580 75
2003-02-24 07:43:43 51°14.037 2°53.308 10.4 281 6.1 102570 75
2003-02-24 07:43:48 51°14.028 2°53.282 11.1 275 6.1 102570 75
2003-02-24 07:43:52 51°14.021 2°53.261 9.6 274 6.1 102580 75
2003-02-24 07:43:58 51°14.01 2°53.229 11.6 276 6.1 102580 75
2003-02-24 07:44:02 51°14.003 2°53.208 10.4 273 6.1 102570 75
2003-02-24 07:44:08 51°13.991 2°53.177 11.2 271 6.1 102570 75
2003-02-24 07:44:13 51°13.982 2°53.151 10.6 273 6.2 102570 75
2003-02-24 07:44:18 51°13.973 2°53.125 11.5 269 6.2 102570 75
2003-02-24 07:44:23 51°13.964 2°53.099 11 268 6.2 102580 75
2003-02-24 07:44:28 51°13.954 2°53.073 10.5 274 6.2 102580 75
2003-02-24 07:44:33 51°13.945 2°53.047 10.8 272 6.2 102570 75
2003-02-24 07:44:38 51°13.935 2°53.022 10.2 271 6.2 102570 75
2003-02-24 07:44:43 51°13.926 2°52.996 10.1 272 6.2 102570 75
2003-02-24 07:44:48 51°13.916 2°52.97 10.3 271 6.2 102570 75
2003-02-24 07:44:53 51°13.907 2°52.945 10.1 274 6.2 102570 75
2003-02-24 07:44:58 51°13.897 2°52.919 9.8 272 6.2 102570 75
2003-02-24 07:45:03 51°13.888 2°52.893 11.2 275 6.3 102570 75
2003-02-24 07:45:08 51°13.878 2°52.867 10.4 272 6.3 102570 75
2003-02-24 07:45:12 51°13.871 2°52.847 9.6 272 6.3 102570 74
2003-02-24 07:45:18 51°13.859 2°52.816 9.6 271 6.3 102570 74
2003-02-24 07:45:23 51°13.85 2°52.79 9.9 275 6.3 102570 74
2003-02-24 07:45:28 51°13.84 2°52.764 9.6 271 6.3 102570 74
2003-02-24 07:45:33 51°13.831 2°52.739 9.6 268 6.3 102570 74
2003-02-24 07:45:38 51°13.821 2°52.713 10.2 268 6.3 102570 74
2003-02-24 07:45:43 51°13.812 2°52.687 9.9 272 6.2 102570 74
2003-02-24 07:45:48 51°13.803 2°52.661 10.2 271 6.2 102570 74
2003-02-24 07:45:53 51°13.793 2°52.636 10.3 273 6.2 102580 74
2003-02-24 07:45:58 51°13.784 2°52.61 9.9 274 6.2 102580 74
2003-02-24 07:46:03 51°13.774 2°52.584 9.9 272 6.2 102570 74
2003-02-24 07:46:08 51°13.765 2°52.558 10.3 271 6.2 102570 74
2003-02-24 07:46:13 51°13.756 2°52.533 10.3 271 6.2 102580 74
2003-02-24 07:46:18 51°13.746 2°52.507 10.2 272 6.2 102580 74
2003-02-24 07:46:23 51°13.737 2°52.481 10 269 6.2 102580 74
2003-02-24 07:46:28 51°13.728 2°52.456 9.6 271 6.2 102580 74
2003-02-24 07:46:33 51°13.718 2°52.43 10.3 274 6.2 102580 74
2003-02-24 07:46:37 51°13.711 2°52.409 9.6 273 6.2 102580 74
2003-02-24 07:46:43 51°13.7 2°52.378 10.1 272 6.2 102570 74
2003-02-24 07:46:48 51°13.69 2°52.352 9.7 273 6.2 102570 74
2003-02-24 07:46:53 51°13.681 2°52.327 10 271 6.2 102570 74
2003-02-24 07:46:58 51°13.671 2°52.301 9.8 273 6.2 102570 74
2003-02-24 07:47:03 51°13.662 2°52.275 10.3 271 6.2 102570 74
2003-02-24 07:47:08 51°13.653 2°52.249 10.8 272 6.2 102570 74
2003-02-24 07:47:13 51°13.643 2°52.224 11.4 282 6.2 102570 74
2003-02-24 07:47:18 51°13.634 2°52.198 9.2 270 6.2 102570 74
2003-02-24 07:47:23 51°13.624 2°52.172 10.3 272 6.2 102570 74
2003-02-24 07:47:28 51°13.615 2°52.147 9.8 274 6.2 102570 74
2003-02-24 07:47:32 51°13.607 2°52.126 9.7 272 6.2 102580 74
2003-02-24 07:47:38 51°13.596 2°52.095 9.6 269 6.2 102580 74
2003-02-24 07:47:43 51°13.587 2°52.069 9.8 271 6.2 102570 74
2003-02-24 07:47:48 51°13.577 2°52.044 10.4 273 6.2 102570 74
2003-02-24 07:47:53 51°13.567 2°52.018 10.4 271 6.2 102570 74
2003-02-24 07:47:58 51°13.558 2°51.992 10.6 276 6.2 102570 74
2003-02-24 07:48:03 51°13.548 2°51.966 9.8 274 6.2 102580 74
2003-02-24 07:48:08 51°13.539 2°51.941 9.8 275 6.2 102580 74
2003-02-24 07:48:12 51°13.531 2°51.92 9.4 269 6.2 102570 74
2003-02-24 07:48:18 51°13.52 2°51.889 9.7 267 6.2 102570 74
2003-02-24 07:48:23 51°13.51 2°51.863 9.6 269 6.2 102570 74
2003-02-24 07:48:27 51°13.503 2°51.843 9.3 269 6.2 102570 74
2003-02-24 07:48:32 51°13.493 2°51.817 9.2 267 6.2 102570 74
2003-02-24 07:48:37 51°13.483 2°51.791 9.3 266 6.2 102570 74
2003-02-24 07:48:42 51°13.474 2°51.766 9.6 269 6.2 102570 74
2003-02-24 07:48:48 51°13.462 2°51.735 9.3 269 6.2 102570 74
2003-02-24 07:48:53 51°13.453 2°51.709 9.6 271 6.2 102580 74
2003-02-24 07:48:58 51°13.444 2°51.683 9 270 6.2 102580 74
2003-02-24 07:49:03 51°13.435 2°51.657 9.5 268 6.2 102580 74
2003-02-24 07:49:08 51°13.425 2°51.631 9.2 269 6.2 102580 74
2003-02-24 07:49:13 51°13.416 2°51.605 9 269 6.1 102580 74
2003-02-24 07:49:18 51°13.407 2°51.579 9.8 273 6.1 102580 74
2003-02-24 07:49:23 51°13.397 2°51.554 8.6 268 6.1 102580 74
2003-02-24 07:49:27 51°13.39 2°51.533 9.1 269 6.1 102580 74
2003-02-24 07:49:32 51°13.38 2°51.507 9.5 274 6.1 102580 74
2003-02-24 07:49:37 51°13.371 2°51.481 9.4 267 6.1 102580 74
2003-02-24 07:49:43 51°13.36 2°51.45 9.8 268 6.1 102580 74
2003-02-24 07:49:48 51°13.351 2°51.424 9.2 270 6.1 102580 74
2003-02-24 07:49:52 51°13.343 2°51.404 8.7 267 6.1 102580 74
2003-02-24 07:49:58 51°13.332 2°51.373 8.8 268 6.1 102580 74
2003-02-24 07:50:03 51°13.322 2°51.347 8.8 266 6.1 102580 74
2003-02-24 07:50:08 51°13.313 2°51.321 9.2 269 6.1 102580 74
2003-02-24 07:50:13 51°13.304 2°51.295 9.3 269 6.1 102580 74
2003-02-24 07:50:18 51°13.294 2°51.269 9.1 270 6.1 102580 74
2003-02-24 07:50:23 51°13.285 2°51.243 9.5 270 6 102580 74
2003-02-24 07:50:28 51°13.275 2°51.218 9 269 6 102580 74
2003-02-24 07:50:33 51°13.266 2°51.192 9.2 270 6 102580 74
2003-02-24 07:50:38 51°13.257 2°51.166 8.9 270 6 102580 74
2003-02-24 07:50:43 51°13.247 2°51.14 8.9 268 6 102580 74
2003-02-24 07:50:48 51°13.238 2°51.114 8.9 268 6 102580 74
2003-02-24 07:50:52 51°13.23 2°51.094 8.9 267 5.9 102580 74
2003-02-24 07:50:57 51°13.221 2°51.068 8.9 267 5.9 102580 74
2003-02-24 07:51:03 51°13.209 2°51.037 8.8 267 5.9 102580 74
2003-02-24 07:51:08 51°13.2 2°51.011 9.1 270 5.9 102580 74
2003-02-24 07:51:13 51°13.19 2°50.985 9 269 5.9 102580 74
2003-02-24 07:51:18 51°13.181 2°50.96 9 267 5.9 102580 74
2003-02-24 07:51:23 51°13.171 2°50.934 9 269 5.9 102580 74
2003-02-24 07:51:28 51°13.162 2°50.908 8.9 271 5.9 102580 74
2003-02-24 07:51:33 51°13.152 2°50.882 9.2 273 5.8 102580 75
2003-02-24 07:51:38 51°13.143 2°50.856 9.6 268 5.8 102580 75
2003-02-24 07:51:43 51°13.133 2°50.83 9.2 272 5.8 102580 75
2003-02-24 07:51:47 51°13.126 2°50.809 9.2 270 5.8 102580 75
2003-02-24 07:51:53 51°13.114 2°50.778 9.2 268 5.7 102580 75
2003-02-24 07:51:58 51°13.105 2°50.752 9 271 5.7 102580 75
2003-02-24 07:52:03 51°13.095 2°50.726 8.9 269 5.7 102580 75
2003-02-24 07:52:08 51°13.086 2°50.7 9.4 269 5.7 102580 75
2003-02-24 07:52:13 51°13.077 2°50.674 8.6 272 5.7 102580 75
2003-02-24 07:52:18 51°13.067 2°50.648 9.1 269 5.7 102580 75
2003-02-24 07:52:23 51°13.058 2°50.622 9 270 5.7 102580 75
2003-02-24 07:52:28 51°13.048 2°50.596 8.9 266 5.7 102580 75
2003-02-24 07:52:33 51°13.039 2°50.57 9.1 265 5.7 102580 75
2003-02-24 07:52:38 51°13.029 2°50.544 8.6 271 5.7 102580 75
2003-02-24 07:52:43 51°13.02 2°50.518 8.8 271 5.6 102580 76
2003-02-24 07:52:48 51°13.011 2°50.492 9.1 270 5.6 102580 76
2003-02-24 07:52:53 51°13.001 2°50.466 8.5 268 5.6 102580 76
2003-02-24 07:52:58 51°12.992 2°50.44 8.7 269 5.6 102580 76
2003-02-24 07:53:03 51°12.982 2°50.414 8.5 265 5.6 102580 76
2003-02-24 07:53:08 51°12.973 2°50.388 8.5 269 5.6 102580 76
2003-02-24 07:53:13 51°12.964 2°50.361 8.5 270 5.6 102580 76
2003-02-24 07:53:18 51°12.954 2°50.335 9 270 5.6 102580 76
2003-02-24 07:53:23 51°12.945 2°50.309 8.8 268 5.5 102580 76
2003-02-24 07:53:28 51°12.935 2°50.283 8.8 268 5.5 102580 76
2003-02-24 07:53:32 51°12.928 2°50.262 9 270 5.5 102580 76
2003-02-24 07:53:37 51°12.918 2°50.236 8.9 271 5.5 102580 76
2003-02-24 07:53:43 51°12.907 2°50.204 8.6 270 5.5 102580 76
2003-02-24 07:53:48 51°12.898 2°50.178 8.9 271 5.5 102580 76
2003-02-24 07:53:53 51°12.889 2°50.152 8.6 268 5.5 102580 76
2003-02-24 07:53:57 51°12.881 2°50.131 8.5 269 5.5 102580 76
2003-02-24 07:54:02 51°12.872 2°50.105 8.8 269 5.5 102580 76
2003-02-24 07:54:08 51°12.861 2°50.074 8.8 266 5.5 102580 76
2003-02-24 07:54:13 51°12.852 2°50.047 8.9 266 5.4 102580 76
2003-02-24 07:54:17 51°12.844 2°50.027 8.7 268 5.4 102580 76
2003-02-24 07:54:23 51°12.833 2°49.995 8.9 267 5.4 102580 76
2003-02-24 07:54:28 51°12.823 2°49.97 8.5 266 5.4 102580 76
2003-02-24 07:54:33 51°12.814 2°49.943 8.7 268 5.4 102580 77
2003-02-24 07:54:38 51°12.805 2°49.917 8.9 269 5.4 102580 77
2003-02-24 07:54:43 51°12.796 2°49.892 8.9 266 5.4 102580 77
2003-02-24 07:54:48 51°12.786 2°49.866 9.1 269 5.4 102580 77
2003-02-24 07:54:52 51°12.779 2°49.845 8.6 267 5.4 102580 77
2003-02-24 07:54:58 51°12.767 2°49.814 9.1 271 5.4 102580 77
2003-02-24 07:55:03 51°12.758 2°49.788 8.9 268 5.4 102580 77
2003-02-24 07:55:08 51°12.749 2°49.762 8.8 267 5.4 102580 77
2003-02-24 07:55:13 51°12.74 2°49.736 9.2 270 5.4 102580 77
2003-02-24 07:55:18 51°12.731 2°49.71 9.3 270 5.4 102580 77
2003-02-24 07:55:23 51°12.721 2°49.684 9.1 270 5.4 102580 77
2003-02-24 07:55:28 51°12.712 2°49.659 8.6 273 5.4 102580 77
2003-02-24 07:55:33 51°12.702 2°49.633 8.7 271 5.4 102580 77
2003-02-24 07:55:38 51°12.693 2°49.607 8.7 271 5.4 102580 77
2003-02-24 07:55:43 51°12.684 2°49.581 8.8 267 5.3 102590 78
2003-02-24 07:55:48 51°12.675 2°49.555 8.6 271 5.3 102590 78
2003-02-24 07:55:52 51°12.667 2°49.535 8.3 268 5.3 102580 78
2003-02-24 07:55:58 51°12.656 2°49.503 9 268 5.3 102580 78
2003-02-24 07:56:03 51°12.647 2°49.478 8.8 268 5.3 102580 78
2003-02-24 07:56:07 51°12.639 2°49.457 8.3 267 5.3 102580 78
2003-02-24 07:56:13 51°12.628 2°49.426 8.6 267 5.4 102590 78
2003-02-24 07:56:18 51°12.619 2°49.4 8.6 269 5.4 102590 78
2003-02-24 07:56:23 51°12.609 2°49.374 8.5 269 5.4 102580 78
2003-02-24 07:56:28 51°12.6 2°49.348 9.1 271 5.4 102580 78
2003-02-24 07:56:33 51°12.591 2°49.322 8.3 269 5.4 102590 78
2003-02-24 07:56:38 51°12.581 2°49.296 8.4 266 5.4 102590 78
2003-02-24 07:56:43 51°12.572 2°49.27 8.2 267 5.4 102590 78
2003-02-24 07:56:48 51°12.563 2°49.244 8.7 267 5.4 102590 78
2003-02-24 07:56:53 51°12.553 2°49.218 8.3 265 5.3 102580 78
2003-02-24 07:56:58 51°12.543 2°49.192 8.4 267 5.3 102580 78
2003-02-24 07:57:03 51°12.534 2°49.166 8.7 267 5.3 102580 78
2003-02-24 07:57:08 51°12.525 2°49.14 8.6 267 5.3 102580 78
2003-02-24 07:57:13 51°12.515 2°49.114 8.4 264 5.3 102580 78
2003-02-24 07:57:18 51°12.506 2°49.088 8.5 265 5.3 102580 78
2003-02-24 07:57:23 51°12.496 2°49.062 8.6 265 5.3 102590 78
2003-02-24 07:57:28 51°12.487 2°49.036 8.7 268 5.3 102590 78
2003-02-24 07:57:33 51°12.478 2°49.01 8.4 269 5.3 102590 78
2003-02-24 07:57:38 51°12.468 2°48.984 8.2 271 5.3 102590 78
2003-02-24 07:57:43 51°12.459 2°48.958 8.3 269 5.3 102590 78
2003-02-24 07:57:48 51°12.449 2°48.932 8.5 267 5.3 102590 78
2003-02-24 07:57:53 51°12.44 2°48.906 8.4 269 5.3 102590 78
2003-02-24 07:57:58 51°12.43 2°48.88 8.4 270 5.3 102590 78
2003-02-24 07:58:03 51°12.421 2°48.854 8.3 268 5.3 102580 78
2003-02-24 07:58:07 51°12.413 2°48.834 8.2 268 5.3 102580 78
2003-02-24 07:58:12 51°12.404 2°48.807 8.2 270 5.3 102580 78
2003-02-24 07:58:18 51°12.393 2°48.776 8.3 271 5.3 102580 78
2003-02-24 07:58:23 51°12.383 2°48.75 8.4 271 5.2 102580 78
2003-02-24 07:58:28 51°12.374 2°48.724 8.2 269 5.2 102580 78
2003-02-24 07:58:33 51°12.364 2°48.698 8.4 271 5.2 102590 78
2003-02-24 07:58:38 51°12.355 2°48.672 8.4 270 5.2 102590 78
2003-02-24 07:58:43 51°12.345 2°48.645 8.3 268 5.2 102590 78
2003-02-24 07:58:48 51°12.336 2°48.619 8.7 270 5.2 102590 78
2003-02-24 07:58:53 51°12.327 2°48.593 8.6 271 5.2 102580 78
2003-02-24 07:58:58 51°12.318 2°48.566 8.3 271 5.2 102580 78
2003-02-24 07:59:03 51°12.309 2°48.539 8.1 272 5.2 102590 78
2003-02-24 07:59:08 51°12.3 2°48.512 8.5 276 5.2 102590 78
2003-02-24 07:59:13 51°12.292 2°48.485 8.8 274 5.1 102590 79
2003-02-24 07:59:18 51°12.283 2°48.458 8.7 272 5.1 102590 79
2003-02-24 07:59:23 51°12.275 2°48.431 9 277 5.1 102580 79
2003-02-24 07:59:28 51°12.267 2°48.404 8.9 277 5.1 102580 79
2003-02-24 07:59:33 51°12.258 2°48.376 8.8 278 5.1 102580 79
2003-02-24 07:59:38 51°12.25 2°48.349 9.1 276 5.1 102580 79
2003-02-24 07:59:43 51°12.241 2°48.322 8.9 277 5.2 102580 79
2003-02-24 07:59:48 51°12.232 2°48.295 9.7 274 5.2 102580 79
2003-02-24 07:59:53 51°12.224 2°48.268 9.2 282 5.2 102570 79
2003-02-24 07:59:58 51°12.216 2°48.241 9.1 276 5.2 102570 79
2003-02-24 08:00:03 51°12.207 2°48.213 8.8 276 5.2 102580 79
2003-02-24 08:00:08 51°12.198 2°48.186 9.1 276 5.2 102580 79
2003-02-24 08:00:13 51°12.19 2°48.159 9.2 278 5.2 102580 79
2003-02-24 08:00:18 51°12.182 2°48.132 9.1 274 5.2 102580 79
2003-02-24 08:00:23 51°12.173 2°48.105 9.1 279 5.2 102580 79
2003-02-24 08:00:28 51°12.165 2°48.078 9.5 276 5.2 102580 79
2003-02-24 08:00:33 51°12.156 2°48.05 9.7 274 5.2 102580 79
2003-02-24 08:00:38 51°12.148 2°48.023 8.9 274 5.2 102580 79
2003-02-24 08:00:43 51°12.139 2°47.996 9.4 278 5.2 102580 79
2003-02-24 08:00:48 51°12.13 2°47.969 9.8 272 5.2 102580 79
2003-02-24 08:00:53 51°12.122 2°47.942 9.2 272 5.2 102580 79
2003-02-24 08:00:58 51°12.113 2°47.915 10.7 276 5.2 102580 79
2003-02-24 08:01:03 51°12.105 2°47.887 10.5 277 5.3 102570 80
2003-02-24 08:01:08 51°12.096 2°47.86 9.5 276 5.3 102570 80
2003-02-24 08:01:13 51°12.087 2°47.833 9.6 276 5.3 102570 80
2003-02-24 08:01:18 51°12.079 2°47.806 9.7 274 5.3 102570 80
2003-02-24 08:01:23 51°12.07 2°47.779 9.6 276 5.3 102570 80
2003-02-24 08:01:28 51°12.062 2°47.752 9.4 277 5.3 102570 80
2003-02-24 08:01:33 51°12.053 2°47.724 9.2 275 5.3 102570 80
2003-02-24 08:01:38 51°12.044 2°47.697 10.3 276 5.3 102570 80
2003-02-24 08:01:43 51°12.036 2°47.67 9.7 277 5.4 102570 79
2003-02-24 08:01:48 51°12.027 2°47.643 9.2 278 5.4 102570 79
2003-02-24 08:01:53 51°12.019 2°47.616 9.3 274 5.4 102570 79
2003-02-24 08:01:57 51°12.012 2°47.594 9.2 276 5.4 102570 79
2003-02-24 08:02:03 51°12 2°47.561 9.6 271 5.4 102570 79
2003-02-24 08:02:08 51°11.991 2°47.533 9.9 275 5.4 102570 79
2003-02-24 08:02:13 51°11.984 2°47.507 10.1 276 5.4 102570 79
2003-02-24 08:02:17 51°11.977 2°47.486 10.2 276 5.4 102570 79
2003-02-24 08:02:23 51°11.967 2°47.453 10 275 5.4 102570 79
2003-02-24 08:02:28 51°11.958 2°47.426 9.8 279 5.4 102570 79
2003-02-24 08:02:33 51°11.95 2°47.398 10.3 274 5.5 102560 79
2003-02-24 08:02:37 51°11.943 2°47.376 9.7 278 5.5 102560 79
2003-02-24 08:02:42 51°11.934 2°47.349 9.8 277 5.5 102570 79
2003-02-24 08:02:47 51°11.925 2°47.321 10.7 277 5.5 102570 79
2003-02-24 08:02:52 51°11.916 2°47.294 9.8 279 5.4 102570 79
2003-02-24 08:02:57 51°11.907 2°47.266 9.8 277 5.4 102570 79
2003-02-24 08:03:02 51°11.899 2°47.239 9.8 276 5.5 102560 79
2003-02-24 08:03:07 51°11.89 2°47.211 10.2 278 5.5 102560 79
2003-02-24 08:03:12 51°11.881 2°47.184 9.4 277 5.5 102570 79
2003-02-24 08:03:17 51°11.872 2°47.156 9.7 277 5.5 102570 79
2003-02-24 08:03:22 51°11.864 2°47.129 10.3 276 5.5 102560 79
2003-02-24 08:03:27 51°11.855 2°47.102 11 280 5.5 102560 79
2003-02-24 08:03:31 51°11.849 2°47.079 10 279 5.5 102560 79
2003-02-24 08:03:36 51°11.843 2°47.055 10.9 277 5.5 102560 79
2003-02-24 08:03:41 51°11.834 2°47.028 10.7 273 5.5 102560 78
2003-02-24 08:03:46 51°11.826 2°47.001 10.3 280 5.5 102560 78
2003-02-24 08:03:51 51°11.817 2°46.974 10.3 278 5.5 102560 78
2003-02-24 08:03:56 51°11.808 2°46.946 10.6 278 5.5 102560 78
2003-02-24 08:04:01 51°11.8 2°46.92 10.7 281 5.5 102560 78
2003-02-24 08:04:05 51°11.793 2°46.898 10.1 281 5.5 102560 78
2003-02-24 08:04:11 51°11.783 2°46.865 10.4 279 5.5 102560 78
2003-02-24 08:04:15 51°11.775 2°46.842 10.6 281 5.5 102560 78
2003-02-24 08:04:20 51°11.766 2°46.815 10.3 281 5.5 102560 78
2003-02-24 08:04:25 51°11.757 2°46.787 10.3 277 5.5 102560 78
2003-02-24 08:04:30 51°11.749 2°46.76 10.2 277 5.5 102560 78
2003-02-24 08:04:35 51°11.74 2°46.733 11.1 277 5.5 102560 78
2003-02-24 08:04:40 51°11.731 2°46.706 11.1 278 5.5 102560 78
2003-02-24 08:04:45 51°11.723 2°46.678 10.7 275 5.5 102560 78
2003-02-24 08:04:50 51°11.714 2°46.651 10.1 277 5.5 102560 78
2003-02-24 08:04:55 51°11.705 2°46.624 10.3 282 5.5 102560 78
2003-02-24 08:05:00 51°11.697 2°46.596 10 278 5.5 102560 78
2003-02-24 08:05:05 51°11.688 2°46.569 10.6 277 5.5 102560 78
2003-02-24 08:05:10 51°11.68 2°46.542 10.8 276 5.5 102560 78
2003-02-24 08:05:15 51°11.671 2°46.515 10.2 277 5.5 102560 78
2003-02-24 08:05:20 51°11.663 2°46.487 10.6 280 5.5 102560 78
2003-02-24 08:05:25 51°11.655 2°46.46 9.7 277 5.5 102560 78
2003-02-24 08:05:30 51°11.647 2°46.432 9.4 278 5.5 102560 78
2003-02-24 08:05:35 51°11.64 2°46.404 9.8 280 5.5 102560 78
2003-02-24 08:05:40 51°11.632 2°46.376 9.6 276 5.5 102560 78
2003-02-24 08:05:45 51°11.625 2°46.348 9.5 278 5.5 102560 78
2003-02-24 08:05:50 51°11.618 2°46.32 10.2 281 5.5 102560 78
2003-02-24 08:05:55 51°11.611 2°46.291 9.5 278 5.5 102560 78
2003-02-24 08:06:00 51°11.604 2°46.263 9.5 279 5.5 102560 78
2003-02-24 08:06:05 51°11.598 2°46.234 9.3 275 5.5 102560 78
2003-02-24 08:06:10 51°11.591 2°46.206 9.3 277 5.5 102560 78
2003-02-24 08:06:15 51°11.584 2°46.178 9.1 273 5.5 102560 78
2003-02-24 08:06:20 51°11.577 2°46.149 8.9 273 5.5 102570 78
2003-02-24 08:06:25 51°11.571 2°46.12 9.1 273 5.5 102570 78
2003-02-24 08:06:30 51°11.564 2°46.092 8.9 270 5.5 102560 78
2003-02-24 08:06:35 51°11.557 2°46.063 9.2 268 5.5 102560 78
2003-02-24 08:06:40 51°11.55 2°46.035 9 273 5.4 102570 78
2003-02-24 08:06:45 51°11.544 2°46.006 8.7 272 5.4 102570 78
2003-02-24 08:06:50 51°11.537 2°45.978 8.6 273 5.4 102570 77
2003-02-24 08:06:55 51°11.53 2°45.95 8.5 272 5.4 102570 77
2003-02-24 08:07:00 51°11.524 2°45.922 9.1 273 5.4 102570 77
2003-02-24 08:07:05 51°11.517 2°45.894 9 271 5.4 102570 77
2003-02-24 08:07:10 51°11.51 2°45.865 8.7 267 5.3 102570 78
2003-02-24 08:07:15 51°11.503 2°45.837 9.1 272 5.3 102570 78
2003-02-24 08:07:20 51°11.496 2°45.808 8.9 268 5.3 102570 78
2003-02-24 08:07:25 51°11.489 2°45.78 9.2 269 5.3 102570 78
2003-02-24 08:07:30 51°11.482 2°45.751 8.7 269 5.3 102570 78
2003-02-24 08:07:35 51°11.476 2°45.722 9.1 268 5.3 102570 78
2003-02-24 08:07:40 51°11.469 2°45.694 8.7 271 5.3 102570 78
2003-02-24 08:07:45 51°11.462 2°45.666 8.8 272 5.3 102570 78
2003-02-24 08:07:50 51°11.455 2°45.637 8.6 270 5.3 102570 78
2003-02-24 08:07:55 51°11.448 2°45.609 8.9 275 5.3 102570 78
2003-02-24 08:08:00 51°11.441 2°45.581 9 267 5.3 102580 78
2003-02-24 08:08:05 51°11.433 2°45.553 8.7 267 5.3 102580 78
2003-02-24 08:08:10 51°11.426 2°45.525 8.6 269 5.2 102570 78
2003-02-24 08:08:15 51°11.419 2°45.497 8.5 273 5.2 102570 78
2003-02-24 08:08:20 51°11.412 2°45.469 8.9 278 5.2 102570 78
2003-02-24 08:08:25 51°11.405 2°45.441 8.5 273 5.2 102570 78
2003-02-24 08:08:30 51°11.398 2°45.413 8.8 273 5.2 102570 78
2003-02-24 08:08:35 51°11.391 2°45.384 8.4 274 5.2 102570 78
2003-02-24 08:08:40 51°11.384 2°45.356 9.1 272 5.2 102570 79
2003-02-24 08:08:45 51°11.377 2°45.328 9 275 5.2 102570 79
2003-02-24 08:08:50 51°11.369 2°45.3 8.9 272 5.2 102570 79
2003-02-24 08:08:55 51°11.362 2°45.271 8.7 273 5.2 102570 79
2003-02-24 08:09:00 51°11.355 2°45.243 8.7 273 5.2 102570 79
2003-02-24 08:09:05 51°11.348 2°45.215 9.3 277 5.2 102570 79
2003-02-24 08:09:10 51°11.341 2°45.186 9.2 275 5.2 102570 79
2003-02-24 08:09:15 51°11.334 2°45.158 8.6 271 5.2 102570 79
2003-02-24 08:09:20 51°11.327 2°45.13 8.8 269 5.2 102570 79
2003-02-24 08:09:25 51°11.32 2°45.102 9 271 5.2 102570 79
2003-02-24 08:09:30 51°11.312 2°45.074 9.4 276 5.2 102570 79
2003-02-24 08:09:35 51°11.305 2°45.045 9 272 5.2 102570 79
2003-02-24 08:09:39 51°11.299 2°45.022 9.1 272 5.2 102570 79
2003-02-24 08:09:45 51°11.291 2°44.988 9.2 271 5.2 102570 79
2003-02-24 08:09:50 51°11.284 2°44.96 9.5 272 5.2 102570 79
2003-02-24 08:09:55 51°11.277 2°44.932 9.5 270 5.2 102570 79
2003-02-24 08:10:00 51°11.269 2°44.904 9.1 268 5.2 102570 79
2003-02-24 08:10:05 51°11.262 2°44.875 9.1 269 5.2 102570 79
2003-02-24 08:10:10 51°11.255 2°44.847 8.9 271 5.2 102570 79
2003-02-24 08:10:15 51°11.248 2°44.819 8.9 269 5.2 102570 79
2003-02-24 08:10:19 51°11.242 2°44.796 9.1 269 5.3 102580 79
2003-02-24 08:10:25 51°11.234 2°44.762 9.4 270 5.3 102580 79
2003-02-24 08:10:30 51°11.227 2°44.734 9.1 271 5.3 102570 79
2003-02-24 08:10:35 51°11.22 2°44.706 9 273 5.3 102570 79
2003-02-24 08:10:40 51°11.212 2°44.677 9 270 5.3 102570 79
2003-02-24 08:10:45 51°11.205 2°44.649 9 272 5.3 102570 79
2003-02-24 08:10:50 51°11.198 2°44.621 8.9 272 5.2 102570 79
2003-02-24 08:10:55 51°11.19 2°44.593 9.3 271 5.2 102570 79
2003-02-24 08:11:00 51°11.183 2°44.563 9 270 5.2 102570 79
2003-02-24 08:11:05 51°11.175 2°44.534 8.7 272 5.2 102570 79
2003-02-24 08:11:10 51°11.168 2°44.506 8.7 272 5.2 102570 79
2003-02-24 08:11:15 51°11.161 2°44.477 8.9 273 5.2 102570 79
2003-02-24 08:11:20 51°11.154 2°44.449 9 273 5.2 102580 79
2003-02-24 08:11:25 51°11.146 2°44.421 8.5 271 5.2 102580 79
2003-02-24 08:11:30 51°11.139 2°44.393 8.4 271 5.2 102570 79
2003-02-24 08:11:35 51°11.132 2°44.365 8.5 270 5.2 102570 79
2003-02-24 08:11:40 51°11.124 2°44.337 8.3 273 5.2 102570 79
2003-02-24 08:11:45 51°11.117 2°44.308 8.5 271 5.2 102570 79
2003-02-24 08:11:50 51°11.11 2°44.28 8.3 268 5.2 102570 79
2003-02-24 08:11:55 51°11.103 2°44.252 8.3 269 5.2 102570 79
2003-02-24 08:12:00 51°11.096 2°44.223 8.4 265 5.2 102570 79
2003-02-24 08:12:05 51°11.088 2°44.195 8.4 270 5.2 102570 79
2003-02-24 08:12:10 51°11.081 2°44.167 8.2 272 5.2 102570 79
2003-02-24 08:12:15 51°11.074 2°44.138 8.3 274 5.2 102570 79
2003-02-24 08:12:20 51°11.067 2°44.109 8.2 271 5.2 102580 79
2003-02-24 08:12:25 51°11.059 2°44.081 8.4 272 5.2 102580 79
2003-02-24 08:12:30 51°11.052 2°44.053 8.3 272 5.2 102570 79
2003-02-24 08:12:35 51°11.045 2°44.024 8.6 273 5.2 102570 79
2003-02-24 08:12:40 51°11.038 2°43.996 8.7 275 5.2 102570 79
2003-02-24 08:12:45 51°11.031 2°43.968 9.1 271 5.2 102570 79
2003-02-24 08:12:50 51°11.024 2°43.939 8.9 272 5.2 102570 79
2003-02-24 08:12:55 51°11.016 2°43.911 8.7 276 5.2 102570 79
2003-02-24 08:13:00 51°11.009 2°43.883 8.4 274 5.2 102570 79
2003-02-24 08:13:05 51°11.002 2°43.854 8.4 275 5.2 102570 79
2003-02-24 08:13:10 51°10.995 2°43.826 8.2 268 5.2 102570 80
2003-02-24 08:13:15 51°10.988 2°43.798 8 272 5.2 102570 80
2003-02-24 08:13:20 51°10.98 2°43.769 8.1 271 5.2 102570 80
2003-02-24 08:13:25 51°10.973 2°43.741 8.3 272 5.2 102570 80
2003-02-24 08:13:30 51°10.966 2°43.713 8.2 273 5.2 102570 80
2003-02-24 08:13:35 51°10.959 2°43.684 8 272 5.2 102570 80
2003-02-24 08:13:40 51°10.951 2°43.656 8.5 275 5.2 102570 80
2003-02-24 08:13:45 51°10.944 2°43.627 8.3 272 5.2 102570 80
2003-02-24 08:13:50 51°10.936 2°43.599 8.1 275 5.2 102570 80
2003-02-24 08:13:55 51°10.929 2°43.57 8.1 271 5.2 102570 80
2003-02-24 08:14:00 51°10.922 2°43.542 8.3 273 5.2 102570 80
2003-02-24 08:14:05 51°10.915 2°43.513 7.8 272 5.2 102570 80
2003-02-24 08:14:10 51°10.907 2°43.485 8.2 272 5.2 102570 80
2003-02-24 08:14:15 51°10.9 2°43.458 8.2 271 5.2 102570 80
2003-02-24 08:14:20 51°10.893 2°43.43 7.8 272 5.2 102570 80
2003-02-24 08:14:25 51°10.886 2°43.401 8.2 270 5.2 102570 80
2003-02-24 08:14:30 51°10.879 2°43.373 8.2 271 5.2 102570 80
2003-02-24 08:14:35 51°10.872 2°43.344 8.5 270 5.2 102570 80
2003-02-24 08:14:40 51°10.865 2°43.316 8 269 5.2 102570 80
2003-02-24 08:14:45 51°10.857 2°43.288 8.2 271 5.2 102570 80
2003-02-24 08:14:50 51°10.85 2°43.259 8.2 270 5.2 102580 80
2003-02-24 08:14:55 51°10.843 2°43.231 8.3 270 5.2 102580 80
2003-02-24 08:14:59 51°10.837 2°43.209 8.4 271 5.2 102570 80
2003-02-24 08:15:05 51°10.829 2°43.175 8.8 271 5.2 102570 80
2003-02-24 08:15:10 51°10.821 2°43.146 8.5 268 5.2 102570 80
2003-02-24 08:15:15 51°10.814 2°43.118 8.3 270 5.2 102570 80
2003-02-24 08:15:20 51°10.807 2°43.089 8.3 271 5.2 102580 80
2003-02-24 08:15:25 51°10.8 2°43.061 8.4 270 5.2 102580 80
2003-02-24 08:15:30 51°10.793 2°43.033 8.5 270 5.2 102570 80
2003-02-24 08:15:35 51°10.786 2°43.005 8.6 273 5.2 102570 80
2003-02-24 08:15:40 51°10.778 2°42.977 8.6 272 5.2 102570 80
2003-02-24 08:15:45 51°10.771 2°42.948 8.2 271 5.2 102570 80
2003-02-24 08:15:50 51°10.764 2°42.92 8.1 269 5.2 102570 80
2003-02-24 08:15:55 51°10.757 2°42.892 8.4 269 5.2 102570 80
2003-02-24 08:16:00 51°10.75 2°42.864 8.7 271 5.3 102570 80
2003-02-24 08:16:05 51°10.743 2°42.835 8.2 268 5.3 102570 80
2003-02-24 08:16:10 51°10.735 2°42.807 8.3 269 5.3 102570 80
2003-02-24 08:16:15 51°10.728 2°42.779 8.5 270 5.3 102570 80
2003-02-24 08:16:20 51°10.721 2°42.75 8.4 268 5.3 102570 80
2003-02-24 08:16:25 51°10.714 2°42.722 8.2 272 5.3 102570 80
2003-02-24 08:16:30 51°10.707 2°42.694 8.3 269 5.3 102570 80
2003-02-24 08:16:35 51°10.7 2°42.666 8.4 271 5.3 102570 80
2003-02-24 08:16:40 51°10.692 2°42.638 8.3 271 5.3 102570 80
2003-02-24 08:16:45 51°10.685 2°42.609 8.3 271 5.3 102570 80
2003-02-24 08:16:50 51°10.677 2°42.581 8.2 270 5.3 102570 80
2003-02-24 08:16:55 51°10.67 2°42.553 8.6 268 5.3 102570 80
2003-02-24 08:17:00 51°10.663 2°42.525 8.8 274 5.3 102570 80
2003-02-24 08:17:05 51°10.656 2°42.496 8.5 269 5.3 102570 80
2003-02-24 08:17:10 51°10.648 2°42.468 8.3 271 5.3 102570 80
2003-02-24 08:17:15 51°10.641 2°42.44 8.3 269 5.3 102570 80
2003-02-24 08:17:20 51°10.634 2°42.412 8.1 274 5.3 102570 80
2003-02-24 08:17:25 51°10.627 2°42.384 8.4 269 5.3 102570 80
2003-02-24 08:17:30 51°10.62 2°42.355 8.4 265 5.2 102570 80
2003-02-24 08:17:35 51°10.613 2°42.327 8.3 271 5.2 102570 80
2003-02-24 08:17:40 51°10.605 2°42.299 8.5 271 5.3 102570 80
2003-02-24 08:17:45 51°10.598 2°42.271 8.7 273 5.3 102570 80
2003-02-24 08:17:50 51°10.591 2°42.243 9 274 5.3 102570 80
2003-02-24 08:17:55 51°10.584 2°42.215 8.5 271 5.3 102570 80
2003-02-24 08:18:00 51°10.576 2°42.186 8.6 273 5.3 102570 80
2003-02-24 08:18:05 51°10.569 2°42.158 8.6 271 5.3 102570 80
2003-02-24 08:18:10 51°10.562 2°42.13 8.5 272 5.3 102570 80
2003-02-24 08:18:15 51°10.554 2°42.102 8.7 276 5.3 102570 80
2003-02-24 08:18:20 51°10.547 2°42.074 8.7 274 5.3 102570 80
2003-02-24 08:18:25 51°10.54 2°42.046 8.6 274 5.3 102570 80
2003-02-24 08:18:30 51°10.533 2°42.017 8.7 275 5.3 102570 80
2003-02-24 08:18:35 51°10.525 2°41.989 8.5 272 5.3 102570 80
2003-02-24 08:18:40 51°10.518 2°41.961 8.6 274 5.3 102570 80
2003-02-24 08:18:45 51°10.511 2°41.933 8.6 270 5.3 102570 80
2003-02-24 08:18:50 51°10.504 2°41.904 8.7 274 5.3 102570 80
2003-02-24 08:18:55 51°10.497 2°41.876 8.4 273 5.3 102570 80
2003-02-24 08:19:00 51°10.489 2°41.848 9 274 5.3 102570 80
2003-02-24 08:19:05 51°10.482 2°41.819 9 269 5.3 102570 80
2003-02-24 08:19:10 51°10.475 2°41.791 10.2 273 5.3 102570 80
2003-02-24 08:19:15 51°10.468 2°41.763 9.1 276 5.3 102570 80
2003-02-24 08:19:20 51°10.461 2°41.734 9.3 270 5.3 102570 80
2003-02-24 08:19:25 51°10.454 2°41.706 8.1 271 5.3 102570 80
2003-02-24 08:19:30 51°10.447 2°41.677 8.4 270 5.3 102570 80
2003-02-24 08:19:35 51°10.439 2°41.649 9.4 277 5.3 102570 80
2003-02-24 08:19:40 51°10.432 2°41.62 8.8 278 5.3 102570 80
2003-02-24 08:19:45 51°10.425 2°41.592 8.9 276 5.3 102570 80
2003-02-24 08:19:50 51°10.418 2°41.563 9.2 276 5.3 102570 80
2003-02-24 08:19:55 51°10.411 2°41.534 8.9 275 5.3 102570 80
2003-02-24 08:20:00 51°10.404 2°41.505 9.1 274 5.3 102570 80
2003-02-24 08:20:05 51°10.396 2°41.477 9 275 5.3 102570 80
2003-02-24 08:20:10 51°10.389 2°41.448 9.2 275 5.3 102570 80
2003-02-24 08:20:15 51°10.382 2°41.42 9.5 277 5.3 102570 80
2003-02-24 08:20:20 51°10.375 2°41.391 9.8 278 5.4 102570 80
2003-02-24 08:20:25 51°10.368 2°41.363 9.6 273 5.4 102570 80
2003-02-24 08:20:30 51°10.36 2°41.334 9 276 5.4 102560 80
2003-02-24 08:20:35 51°10.353 2°41.306 9.2 276 5.4 102560 80
2003-02-24 08:20:40 51°10.346 2°41.277 8.9 275 5.4 102560 80
2003-02-24 08:20:45 51°10.339 2°41.249 9.1 278 5.4 102560 80
2003-02-24 08:20:50 51°10.331 2°41.22 9.4 278 5.5 102560 80
2003-02-24 08:20:55 51°10.324 2°41.191 9.3 279 5.5 102560 80
2003-02-24 08:21:00 51°10.317 2°41.163 9.3 277 5.5 102560 80
2003-02-24 08:21:05 51°10.309 2°41.134 9.5 275 5.5 102560 80
2003-02-24 08:21:10 51°10.302 2°41.106 9.7 277 5.5 102570 80
2003-02-24 08:21:15 51°10.295 2°41.077 9.2 277 5.5 102570 80
2003-02-24 08:21:20 51°10.288 2°41.049 8.9 274 5.5 102570 80
2003-02-24 08:21:25 51°10.28 2°41.02 9.2 275 5.5 102570 80
2003-02-24 08:21:30 51°10.273 2°40.991 9.1 278 5.5 102560 80
2003-02-24 08:21:35 51°10.266 2°40.962 9 278 5.5 102560 80
2003-02-24 08:21:40 51°10.259 2°40.934 9 276 5.5 102560 79
2003-02-24 08:21:45 51°10.252 2°40.905 9.1 279 5.5 102560 79
2003-02-24 08:21:50 51°10.245 2°40.877 9.2 277 5.6 102570 79
2003-02-24 08:21:55 51°10.237 2°40.848 9.3 273 5.6 102570 79
2003-02-24 08:22:00 51°10.23 2°40.82 9.7 276 5.5 102560 79
2003-02-24 08:22:05 51°10.223 2°40.791 9.7 274 5.5 102560 79
2003-02-24 08:22:10 51°10.216 2°40.762 9.3 271 5.5 102560 79
2003-02-24 08:22:15 51°10.209 2°40.733 8.5 275 5.5 102560 79
2003-02-24 08:22:20 51°10.202 2°40.704 8.9 271 5.6 102570 79
2003-02-24 08:22:25 51°10.194 2°40.676 8.8 275 5.6 102570 79
2003-02-24 08:22:30 51°10.187 2°40.647 9.5 275 5.6 102570 79
2003-02-24 08:22:35 51°10.18 2°40.618 9.3 273 5.6 102570 79
2003-02-24 08:22:40 51°10.173 2°40.589 9.7 273 5.6 102570 79
2003-02-24 08:22:45 51°10.166 2°40.56 9.6 276 5.6 102570 79
2003-02-24 08:22:50 51°10.159 2°40.531 9.5 277 5.6 102570 79
2003-02-24 08:22:55 51°10.152 2°40.502 9.7 279 5.6 102570 79
2003-02-24 08:23:00 51°10.144 2°40.473 9.8 273 5.6 102560 79
2003-02-24 08:23:05 51°10.137 2°40.444 9.5 274 5.6 102560 79
2003-02-24 08:23:10 51°10.13 2°40.416 9.6 276 5.6 102560 79
2003-02-24 08:23:15 51°10.123 2°40.386 9.5 273 5.6 102560 79
2003-02-24 08:23:20 51°10.116 2°40.358 9.5 272 5.6 102560 79
2003-02-24 08:23:25 51°10.108 2°40.329 9.7 275 5.6 102560 79
2003-02-24 08:23:30 51°10.101 2°40.3 9.7 271 5.6 102560 79
2003-02-24 08:23:35 51°10.094 2°40.271 9.9 273 5.6 102560 79
2003-02-24 08:23:40 51°10.087 2°40.242 9.9 269 5.6 102560 78
2003-02-24 08:23:45 51°10.08 2°40.213 9.6 272 5.6 102560 78
2003-02-24 08:23:50 51°10.072 2°40.184 9 269 5.6 102570 78
2003-02-24 08:23:55 51°10.065 2°40.155 9.8 270 5.6 102570 78
2003-02-24 08:24:00 51°10.058 2°40.126 9.2 270 5.6 102570 78
2003-02-24 08:24:05 51°10.05 2°40.098 9.2 268 5.6 102570 78
2003-02-24 08:24:10 51°10.043 2°40.068 9.6 270 5.6 102560 78
2003-02-24 08:24:15 51°10.036 2°40.04 9.4 270 5.6 102560 78
2003-02-24 08:24:20 51°10.029 2°40.011 9.7 271 5.6 102570 78
2003-02-24 08:24:25 51°10.021 2°39.982 9.3 272 5.6 102570 78
2003-02-24 08:24:30 51°10.014 2°39.953 9.3 264 5.6 102570 78
2003-02-24 08:24:35 51°10.007 2°39.924 9.4 267 5.6 102570 78
2003-02-24 08:24:40 51°10 2°39.895 9.6 269 5.6 102570 78
2003-02-24 08:24:45 51°9.993 2°39.866 9.3 261 5.6 102570 78
2003-02-24 08:24:50 51°9.985 2°39.837 9.6 264 5.6 102570 78
2003-02-24 08:24:55 51°9.978 2°39.808 9.8 266 5.6 102570 78
2003-02-24 08:25:00 51°9.971 2°39.779 9.4 271 5.6 102570 78
2003-02-24 08:25:05 51°9.963 2°39.75 9.5 266 5.6 102570 78
2003-02-24 08:25:10 51°9.956 2°39.721 9.4 267 5.6 102570 78
2003-02-24 08:25:15 51°9.949 2°39.692 9.7 268 5.6 102570 78
2003-02-24 08:25:20 51°9.941 2°39.663 9.7 269 5.6 102570 78
2003-02-24 08:25:25 51°9.934 2°39.634 9.1 266 5.6 102570 78
2003-02-24 08:25:30 51°9.927 2°39.605 9.1 268 5.6 102570 78
2003-02-24 08:25:35 51°9.921 2°39.576 9.4 267 5.6 102570 78
2003-02-24 08:25:40 51°9.914 2°39.546 9.4 269 5.6 102570 78
2003-02-24 08:25:45 51°9.907 2°39.517 9.1 268 5.6 102570 78
2003-02-24 08:25:50 51°9.901 2°39.488 8.8 268 5.6 102570 78
2003-02-24 08:25:55 51°9.894 2°39.458 9.2 268 5.6 102570 78
2003-02-24 08:26:00 51°9.887 2°39.429 9 269 5.6 102570 78
2003-02-24 08:26:04 51°9.882 2°39.405 9 268 5.6 102570 78
2003-02-24 08:26:10 51°9.874 2°39.37 9.2 266 5.6 102570 78
2003-02-24 08:26:15 51°9.867 2°39.341 8.7 269 5.6 102570 78
2003-02-24 08:26:20 51°9.86 2°39.311 9.1 269 5.5 102570 78
2003-02-24 08:26:25 51°9.854 2°39.282 9.7 271 5.5 102570 78
2003-02-24 08:26:30 51°9.847 2°39.253 9.3 267 5.5 102570 78
2003-02-24 08:26:35 51°9.84 2°39.224 9.4 272 5.5 102570 78
2003-02-24 08:26:40 51°9.834 2°39.194 9.3 273 5.5 102570 78
2003-02-24 08:26:45 51°9.827 2°39.165 9.6 272 5.5 102570 78
2003-02-24 08:26:50 51°9.82 2°39.136 9.2 272 5.5 102570 78
2003-02-24 08:26:55 51°9.813 2°39.106 9.1 270 5.5 102570 78
2003-02-24 08:27:00 51°9.807 2°39.077 9.2 271 5.5 102570 78
2003-02-24 08:27:05 51°9.8 2°39.048 9.9 272 5.5 102570 78
2003-02-24 08:27:10 51°9.793 2°39.019 9.6 274 5.5 102570 78
2003-02-24 08:27:15 51°9.786 2°38.989 9.1 272 5.5 102570 78
2003-02-24 08:27:20 51°9.78 2°38.96 9 273 5.5 102570 78
2003-02-24 08:27:25 51°9.773 2°38.931 9.1 269 5.5 102570 78
2003-02-24 08:27:30 51°9.766 2°38.901 9.4 273 5.5 102570 78
2003-02-24 08:27:35 51°9.76 2°38.872 9.2 269 5.5 102570 78
2003-02-24 08:27:40 51°9.753 2°38.843 9.4 272 5.5 102570 78
2003-02-24 08:27:45 51°9.746 2°38.814 9.3 270 5.5 102570 78
2003-02-24 08:27:50 51°9.74 2°38.785 9.2 272 5.5 102570 78
2003-02-24 08:27:55 51°9.733 2°38.756 8.4 270 5.5 102570 78
2003-02-24 08:28:00 51°9.726 2°38.727 8.7 269 5.5 102570 78
2003-02-24 08:28:05 51°9.719 2°38.697 9.2 268 5.5 102570 78
2003-02-24 08:28:10 51°9.713 2°38.668 8.9 268 5.5 102570 78
2003-02-24 08:28:15 51°9.706 2°38.639 9.6 276 5.5 102570 78
2003-02-24 08:28:20 51°9.699 2°38.61 9.4 272 5.5 102570 79
2003-02-24 08:28:25 51°9.692 2°38.58 9.3 275 5.5 102570 79
2003-02-24 08:28:30 51°9.686 2°38.551 9 271 5.5 102570 79
2003-02-24 08:28:35 51°9.679 2°38.522 9.5 273 5.5 102570 79
2003-02-24 08:28:40 51°9.672 2°38.493 9.3 270 5.6 102570 79
2003-02-24 08:28:45 51°9.666 2°38.464 9.3 276 5.6 102570 79
2003-02-24 08:28:50 51°9.659 2°38.435 8.9 273 5.6 102570 79
2003-02-24 08:28:55 51°9.652 2°38.406 9.1 272 5.6 102570 79
2003-02-24 08:29:00 51°9.645 2°38.376 9.2 270 5.6 102570 79
2003-02-24 08:29:05 51°9.639 2°38.347 9.3 266 5.6 102570 79
2003-02-24 08:29:10 51°9.632 2°38.318 9.5 267 5.6 102570 79
2003-02-24 08:29:15 51°9.625 2°38.289 9.4 269 5.6 102570 79
2003-02-24 08:29:20 51°9.618 2°38.26 9.4 269 5.6 102570 79
2003-02-24 08:29:25 51°9.612 2°38.231 9 274 5.6 102570 79
2003-02-24 08:29:30 51°9.605 2°38.202 9.2 268 5.6 102570 79
2003-02-24 08:29:35 51°9.599 2°38.172 9.1 272 5.6 102570 79
2003-02-24 08:29:40 51°9.593 2°38.143 8.9 271 5.6 102570 79
2003-02-24 08:29:45 51°9.587 2°38.113 8.9 267 5.6 102570 79
2003-02-24 08:29:50 51°9.581 2°38.083 9.3 269 5.6 102570 79
2003-02-24 08:29:55 51°9.575 2°38.054 8.9 265 5.6 102570 79
2003-02-24 08:30:00 51°9.569 2°38.024 9 267 5.6 102570 79
2003-02-24 08:30:05 51°9.563 2°37.995 9 267 5.6 102570 79
2003-02-24 08:30:10 51°9.557 2°37.965 9.1 269 5.6 102570 79
2003-02-24 08:30:15 51°9.551 2°37.936 9.4 273 5.6 102570 79
2003-02-24 08:30:20 51°9.545 2°37.906 9.1 269 5.6 102570 79
2003-02-24 08:30:25 51°9.539 2°37.877 9.5 272 5.6 102570 79
2003-02-24 08:30:30 51°9.533 2°37.847 9.7 267 5.6 102570 79
2003-02-24 08:30:35 51°9.527 2°37.817 9.1 269 5.6 102570 79
2003-02-24 08:30:40 51°9.521 2°37.788 9.3 269 5.6 102570 79
2003-02-24 08:30:45 51°9.515 2°37.758 9.5 268 5.6 102570 79
2003-02-24 08:30:50 51°9.508 2°37.728 9.3 269 5.6 102570 79
2003-02-24 08:30:55 51°9.502 2°37.699 9.3 268 5.6 102570 79
2003-02-24 08:31:00 51°9.496 2°37.67 9.4 270 5.6 102570 79
2003-02-24 08:31:05 51°9.49 2°37.64 9.6 269 5.6 102570 79
2003-02-24 08:31:10 51°9.484 2°37.61 9.1 268 5.6 102570 79
2003-02-24 08:31:15 51°9.478 2°37.58 9.3 267 5.6 102570 79
2003-02-24 08:31:20 51°9.472 2°37.551 9.6 273 5.6 102570 79
2003-02-24 08:31:25 51°9.466 2°37.521 9.6 271 5.6 102570 79
2003-02-24 08:31:30 51°9.46 2°37.491 9.4 272 5.6 102570 79
2003-02-24 08:31:35 51°9.453 2°37.462 9.8 273 5.6 102570 79
2003-02-24 08:31:40 51°9.447 2°37.432 9.8 274 5.6 102570 79
2003-02-24 08:31:45 51°9.441 2°37.402 9.8 273 5.6 102570 79
2003-02-24 08:31:50 51°9.435 2°37.372 9.8 275 5.6 102570 79
2003-02-24 08:31:55 51°9.429 2°37.343 10 271 5.6 102570 79
2003-02-24 08:32:00 51°9.423 2°37.313 9.8 272 5.6 102570 79
2003-02-24 08:32:05 51°9.417 2°37.284 9.3 270 5.6 102570 79
2003-02-24 08:32:10 51°9.411 2°37.254 9.5 275 5.6 102570 79
2003-02-24 08:32:15 51°9.405 2°37.224 9.2 271 5.6 102570 79
2003-02-24 08:32:20 51°9.399 2°37.195 9.7 271 5.5 102560 79
2003-02-24 08:32:25 51°9.393 2°37.165 9.3 276 5.5 102560 79
2003-02-24 08:32:30 51°9.387 2°37.135 9.2 272 5.6 102570 79
2003-02-24 08:32:35 51°9.38 2°37.106 9.3 272 5.6 102570 79
2003-02-24 08:32:40 51°9.374 2°37.076 9.2 274 5.6 102570 79
2003-02-24 08:32:45 51°9.368 2°37.046 4.4 273 5.6 102570 79
2003-02-24 08:32:50 51°9.362 2°37.016 9.3 274 5.5 102570 79
2003-02-24 08:32:55 51°9.356 2°36.987 9.6 270 5.5 102570 79
2003-02-24 08:33:00 51°9.35 2°36.957 9.1 273 5.5 102570 79
2003-02-24 08:33:05 51°9.344 2°36.927 8.8 274 5.5 102570 79
2003-02-24 08:33:10 51°9.338 2°36.897 8.7 274 5.5 102570 79
2003-02-24 08:33:15 51°9.332 2°36.868 9.2 273 5.5 102570 79
2003-02-24 08:33:20 51°9.326 2°36.838 8.7 273 5.5 102570 79
2003-02-24 08:33:25 51°9.319 2°36.808 9.2 273 5.5 102570 79
2003-02-24 08:33:30 51°9.314 2°36.778 9 275 5.5 102570 79
2003-02-24 08:33:35 51°9.307 2°36.748 8.5 276 5.5 102570 79
2003-02-24 08:33:40 51°9.301 2°36.719 8.4 274 5.5 102570 79
2003-02-24 08:33:45 51°9.295 2°36.689 9 278 5.5 102570 79
2003-02-24 08:33:50 51°9.289 2°36.66 8.7 274 5.5 102570 79
2003-02-24 08:33:55 51°9.283 2°36.632 9.1 277 5.5 102570 79
2003-02-24 08:34:00 51°9.277 2°36.603 9.2 280 5.5 102560 79
2003-02-24 08:34:05 51°9.272 2°36.575 8.9 275 5.5 102560 79
2003-02-24 08:34:10 51°9.266 2°36.547 9.1 279 5.5 102570 79
2003-02-24 08:34:15 51°9.26 2°36.519 8.9 278 5.5 102570 79
2003-02-24 08:34:20 51°9.254 2°36.491 8.5 276 5.5 102570 79
2003-02-24 08:34:25 51°9.248 2°36.463 8.8 279 5.5 102570 79
2003-02-24 08:34:30 51°9.242 2°36.435 8.8 277 5.5 102570 79
2003-02-24 08:34:35 51°9.236 2°36.407 8.9 278 5.5 102570 79
2003-02-24 08:34:40 51°9.23 2°36.379 9 280 5.5 102570 79
2003-02-24 08:34:45 51°9.225 2°36.351 9.2 282 5.5 102570 79
2003-02-24 08:34:50 51°9.219 2°36.323 8.6 280 5.5 102570 79
2003-02-24 08:34:55 51°9.213 2°36.295 8.8 280 5.5 102570 79
2003-02-24 08:35:00 51°9.207 2°36.267 8.2 281 5.5 102570 79
2003-02-24 08:35:05 51°9.202 2°36.239 8.4 278 5.5 102570 79
2003-02-24 08:35:10 51°9.196 2°36.211 8.4 276 5.5 102570 79
2003-02-24 08:35:15 51°9.191 2°36.184 8.5 281 5.5 102570 79
2003-02-24 08:35:20 51°9.185 2°36.156 8.5 276 5.5 102570 79
2003-02-24 08:35:25 51°9.18 2°36.128 8.5 276 5.5 102570 79
2003-02-24 08:35:30 51°9.174 2°36.1 8.8 278 5.5 102570 79
2003-02-24 08:35:35 51°9.168 2°36.072 8.4 278 5.5 102570 79
2003-02-24 08:35:40 51°9.163 2°36.044 8.5 277 5.5 102570 79
2003-02-24 08:35:45 51°9.158 2°36.016 8.5 279 5.5 102570 79
2003-02-24 08:35:50 51°9.152 2°35.988 8.6 275 5.5 102570 79
2003-02-24 08:35:55 51°9.147 2°35.96 8.4 278 5.5 102570 79
2003-02-24 08:36:00 51°9.142 2°35.933 8.7 280 5.5 102570 79
2003-02-24 08:36:05 51°9.137 2°35.905 8.5 281 5.5 102570 79
2003-02-24 08:36:10 51°9.131 2°35.877 8.7 280 5.5 102570 79
2003-02-24 08:36:15 51°9.126 2°35.849 8.6 280 5.5 102570 79
2003-02-24 08:36:20 51°9.12 2°35.821 8.6 279 5.5 102570 79
2003-02-24 08:36:25 51°9.114 2°35.794 8.8 282 5.5 102570 79
2003-02-24 08:36:30 51°9.109 2°35.768 8.7 280 5.6 102570 79
2003-02-24 08:36:35 51°9.104 2°35.744 8 283 5.6 102570 79
2003-02-24 08:36:40 51°9.1 2°35.721 7.9 285 5.6 102570 79
2003-02-24 08:36:45 51°9.095 2°35.699 7.8 285 5.6 102570 79
2003-02-24 08:36:50 51°9.09 2°35.677 7.8 287 5.6 102570 79
2003-02-24 08:36:55 51°9.086 2°35.656 7.2 288 5.6 102570 79
2003-02-24 08:37:00 51°9.081 2°35.636 7 289 5.6 102570 79
2003-02-24 08:37:05 51°9.076 2°35.617 7.1 288 5.6 102570 79
2003-02-24 08:37:10 51°9.072 2°35.598 7.4 290 5.6 102570 79
2003-02-24 08:37:15 51°9.067 2°35.58 7.2 292 5.6 102570 79
2003-02-24 08:37:20 51°9.063 2°35.562 6.8 290 5.6 102570 79
2003-02-24 08:37:25 51°9.059 2°35.544 6.7 293 5.6 102570 79
2003-02-24 08:37:30 51°9.055 2°35.527 6.7 291 5.6 102570 79
2003-02-24 08:37:35 51°9.052 2°35.509 6.5 294 5.6 102570 79
2003-02-24 08:37:40 51°9.049 2°35.491 6.4 296 5.6 102580 79
2003-02-24 08:37:44 51°9.048 2°35.477 5.5 295 5.6 102580 79
2003-02-24 08:37:50 51°9.046 2°35.455 4.6 299 5.6 102580 79
2003-02-24 08:37:55 51°9.045 2°35.439 4.4 303 5.6 102580 79
2003-02-24 08:38:00 51°9.044 2°35.422 5.6 304 5.6 102580 79
2003-02-24 08:38:05 51°9.043 2°35.407 4.2 302 5.6 102580 79
2003-02-24 08:38:10 51°9.042 2°35.392 4.9 306 5.7 102580 79
2003-02-24 08:38:15 51°9.041 2°35.377 3 316 5.7 102580 79
2003-02-24 08:38:20 51°9.04 2°35.363 3.1 303 5.7 102580 79
2003-02-24 08:38:25 51°9.04 2°35.349 3.1 323 5.7 102580 79
2003-02-24 08:38:30 51°9.039 2°35.336 3.7 310 5.7 102580 79
2003-02-24 08:38:35 51°9.038 2°35.323 3.1 316 5.7 102580 79
2003-02-24 08:38:40 51°9.037 2°35.31 4.1 301 5.7 102580 79
2003-02-24 08:38:45 51°9.036 2°35.298 4.2 304 5.7 102580 79
2003-02-24 08:38:50 51°9.035 2°35.286 3.6 296 5.7 102580 79
2003-02-24 08:38:55 51°9.034 2°35.275 3 305 5.7 102580 79
2003-02-24 08:39:00 51°9.033 2°35.263 3.6 302 5.7 102580 79
2003-02-24 08:39:05 51°9.031 2°35.252 3.5 311 5.7 102580 79
2003-02-24 08:39:09 51°9.03 2°35.243 2 313 5.7 102580 79
2003-02-24 08:39:15 51°9.029 2°35.23 3.4 306 5.7 102580 79
2003-02-24 08:39:20 51°9.028 2°35.22 2.9 303 5.7 102580 79
2003-02-24 08:39:25 51°9.027 2°35.209 1.6 312 5.7 102580 79
2003-02-24 08:39:30 51°9.026 2°35.199 2.4 308 5.7 102580 79
2003-02-24 08:39:35 51°9.025 2°35.189 2.1 318 5.7 102580 79
2003-02-24 08:39:40 51°9.025 2°35.178 2.3 302 5.7 102580 79
2003-02-24 08:39:45 51°9.024 2°35.168 2.1 314 5.7 102580 79
2003-02-24 08:39:50 51°9.024 2°35.159 1.9 307 5.8 102590 79
2003-02-24 08:39:55 51°9.023 2°35.149 2.1 308 5.8 102590 79
2003-02-24 08:40:00 51°9.023 2°35.139 1.6 313 5.8 102580 79
2003-02-24 08:40:05 51°9.023 2°35.129 1.3 316 5.8 102580 79
2003-02-24 08:40:10 51°9.023 2°35.12 1.4 317 5.8 102580 79
2003-02-24 08:40:15 51°9.024 2°35.11 0.6 324 5.8 102580 79
2003-02-24 08:40:20 51°9.024 2°35.101 1.4 326 5.8 102580 79
2003-02-24 08:40:25 51°9.024 2°35.092 0.7 322 5.8 102580 79
2003-02-24 08:40:30 51°9.025 2°35.083 0.6 325 5.8 102580 79
2003-02-24 08:40:35 51°9.025 2°35.074 0.9 325 5.8 102580 79
2003-02-24 08:40:40 51°9.026 2°35.065 0.8 327 5.8 102580 79
2003-02-24 08:40:45 51°9.027 2°35.057 1.1 344 5.8 102580 79
2003-02-24 08:40:50 51°9.027 2°35.049 1.4 335 5.8 102580 79
2003-02-24 08:40:55 51°9.028 2°35.042 1.4 336 5.8 102580 79
2003-02-24 08:41:00 51°9.029 2°35.036 1.1 333 5.8 102580 79
2003-02-24 08:41:05 51°9.03 2°35.031 1.9 339 5.8 102580 79
2003-02-24 08:41:10 51°9.03 2°35.027 2 343 5.8 102580 79
2003-02-24 08:41:15 51°9.031 2°35.025 5.5 358 5.8 102580 79
2003-02-24 08:41:20 51°9.031 2°35.023 5.8 1 5.8 102580 79
2003-02-24 08:41:25 51°9.031 2°35.022 6 1 5.8 102580 79
2003-02-24 08:41:30 51°9.032 2°35.021 5.9 355 5.8 102580 79
2003-02-24 08:41:35 51°9.032 2°35.02 5.1 2 5.8 102580 79
2003-02-24 08:41:40 51°9.033 2°35.019 5.9   5.8 102580 79
2003-02-24 08:41:45 51°9.033 2°35.017 5.2 357 5.8 102580 79
2003-02-24 08:41:50 51°9.034 2°35.016 5.2 359 5.8 102580 79
2003-02-24 08:41:55 51°9.035 2°35.015 6.5 360 5.8 102580 79
2003-02-24 08:42:00 51°9.035 2°35.013 6.8 357 5.9 102580 79
2003-02-24 08:42:05 51°9.036 2°35.012 5.9 356 5.9 102580 79
2003-02-24 08:42:10 51°9.036 2°35.011 6.3 354 5.9 102580 79
2003-02-24 08:42:15 51°9.037 2°35.01 6.7 356 5.9 102580 79
2003-02-24 08:42:20 51°9.038 2°35.008 6.5 1 5.9 102580 79
2003-02-24 08:42:25 51°9.039 2°35.007 5.6 5 5.9 102580 79
2003-02-24 08:42:30 51°9.04 2°35.005 5.8   5.9 102580 79
2003-02-24 08:42:35 51°9.04 2°35.004 5.9 4 5.9 102580 79
2003-02-24 08:42:40 51°9.041 2°35.002 5.5 7 5.9 102580 78
2003-02-24 08:42:45 51°9.042 2°35.001 5.5 4 5.9 102580 78
2003-02-24 08:42:50 51°9.043 2°34.999 5.6 2 5.9 102580 78
2003-02-24 08:42:55 51°9.043 2°34.997 6 1 5.9 102580 78
2003-02-24 08:43:00 51°9.044 2°34.996 6.4 4 5.9 102580 78
2003-02-24 08:43:05 51°9.045 2°34.994 6.4 5 5.9 102580 78
2003-02-24 08:43:10 51°9.046 2°34.992 6.7 358 5.9 102580 78
2003-02-24 08:43:15 51°9.047 2°34.991 5.5 358 5.9 102580 78
2003-02-24 08:43:20 51°9.048 2°34.989 6.2 358 5.9 102580 78
2003-02-24 08:43:25 51°9.048 2°34.987 6.4 5 5.9 102580 78
2003-02-24 08:43:30 51°9.049 2°34.986 6.1 8 5.9 102580 78
2003-02-24 08:43:35 51°9.05 2°34.984 6.8   5.9 102580 78
2003-02-24 08:43:40 51°9.051 2°34.982 7.7   5.9 102580 78
2003-02-24 08:43:45 51°9.052 2°34.98 6.9 356 5.9 102580 78
2003-02-24 08:43:50 51°9.053 2°34.979 6.5 357 5.9 102580 78
2003-02-24 08:43:55 51°9.054 2°34.977 6.1 360 5.9 102580 78
2003-02-24 08:43:59 51°9.055 2°34.975 6.2 354 6 102580 78
2003-02-24 08:44:05 51°9.056 2°34.973 6.3 357 6 102580 78
2003-02-24 08:44:10 51°9.057 2°34.971 6.8 356 6 102580 78
2003-02-24 08:44:15 51°9.058 2°34.969 6.2 359 6 102580 78
2003-02-24 08:44:20 51°9.059 2°34.967 6 354 6 102580 78
2003-02-24 08:44:25 51°9.06 2°34.965 5.8 354 6 102580 78
2003-02-24 08:44:30 51°9.061 2°34.963 4.8 354 6 102580 78
2003-02-24 08:44:35 51°9.062 2°34.961 6.2 352 6 102580 78
2003-02-24 08:44:40 51°9.063 2°34.959 6.5 5 6 102580 78
2003-02-24 08:44:45 51°9.063 2°34.957 4.9 349 6 102580 78
2003-02-24 08:44:50 51°9.064 2°34.955 5.5 354 6 102580 77
2003-02-24 08:44:55 51°9.065 2°34.953 5.3 346 6 102580 77
2003-02-24 08:45:00 51°9.066 2°34.951 3.7 333 6 102580 77
2003-02-24 08:45:05 51°9.067 2°34.949 5.5 351 6 102580 77
2003-02-24 08:45:10 51°9.068 2°34.947 3.6 338 6 102580 77
2003-02-24 08:45:15 51°9.069 2°34.945 2.4 348 6 102580 77
2003-02-24 08:45:20 51°9.069 2°34.943 2.4 347 6 102580 77
2003-02-24 08:45:25 51°9.07 2°34.941 2.1 341 6 102580 77
2003-02-24 08:45:30 51°9.071 2°34.938 1.4 342 6 102580 77
2003-02-24 08:45:35 51°9.072 2°34.936 1.8 351 6 102580 77
2003-02-24 08:45:40 51°9.073 2°34.934 2.1 344 6.1 102570 77
2003-02-24 08:45:45 51°9.073 2°34.932 3 340 6.1 102570 77
2003-02-24 08:45:50 51°9.074 2°34.93 2.4 343 6.1 102580 77
2003-02-24 08:45:55 51°9.075 2°34.928 1.7 336 6.1 102580 77
2003-02-24 08:45:59 51°9.075 2°34.926 1.2 326 6.1 102580 77
2003-02-24 08:46:05 51°9.076 2°34.924 1 337 6.1 102580 77
2003-02-24 08:46:10 51°9.077 2°34.922 1 337 6.1 102580 77
2003-02-24 08:46:15 51°9.078 2°34.92 1.3 335 6.1 102580 77
2003-02-24 08:46:20 51°9.078 2°34.917 1.1 340 6.1 102580 77
2003-02-24 08:46:25 51°9.079 2°34.915 2 343 6.1 102580 77
2003-02-24 08:46:30 51°9.08 2°34.913 0.9 334 6.1 102570 77
2003-02-24 08:46:35 51°9.08 2°34.911 0.9 337 6.1 102570 77
2003-02-24 08:46:40 51°9.081 2°34.909 2.1 340 6.1 102580 77
2003-02-24 08:46:45 51°9.082 2°34.907 1.2 328 6.1 102580 77
2003-02-24 08:46:50 51°9.082 2°34.905 0.6 314 6.1 102580 77
2003-02-24 08:46:55 51°9.083 2°34.903 1 339 6.1 102580 77
2003-02-24 08:47:00 51°9.084 2°34.901 1.5 343 6 102580 77
2003-02-24 08:47:05 51°9.084 2°34.899 1.1 333 6 102580 77
2003-02-24 08:47:10 51°9.085 2°34.897 1.1 324 6.1 102580 77
2003-02-24 08:47:15 51°9.086 2°34.895 1.2 321 6.1 102580 77
2003-02-24 08:47:20 51°9.086 2°34.893 1.5 307 6.1 102580 77
2003-02-24 08:47:25 51°9.087 2°34.89 1.7 322 6.1 102580 77
2003-02-24 08:47:30 51°9.087 2°34.888 1.3 342 6 102580 77
2003-02-24 08:47:35 51°9.087 2°34.886 1.6 323 6 102580 77
2003-02-24 08:47:40 51°9.088 2°34.884 1 320 6 102580 77
2003-02-24 08:47:45 51°9.088 2°34.882 1.4 320 6 102580 77
2003-02-24 08:47:50 51°9.089 2°34.88 1 320 6 102570 77
2003-02-24 08:47:55 51°9.09 2°34.878 1.4 332 6 102570 77